Diane H — WUR7250 — position and weather

sailwx.info

Track history (hours):
 
Tides and Currents Weather Stations Pressure Air Temp Water Temp Dewpoint Dewpoint Depression Visibility Wind Speed Wind Dir Waves Ship Positions

Diane H

Owner: BOYER TOWING INC, KETCHIKAN, AK. More information available from US FCC via Universal Licensing System and Coast Guard Vessel Documentation Center.

Last reported at 2015-May-26 09:32 UTC. Time now 2015-May-26 09:46 UTC.
Position N 52°05' W 128°01'.

Type: Towing. MMSI: 366673090.

Date/timePositionNaut miles runAvg speedWind from/ knotsBaromVisibWave heightAir tempDewpointWater temp
2015-May-26 09:32N 52°05' W 128°01'5 5.5
2015-May-26 08:33N 52°00' W 127°56'28 6.6
2015-May-26 04:23N 51°33' W 127°52'6 7.0
2015-May-26 03:30N 51°27' W 127°51'12 6.1
2015-May-26 01:29N 51°14' W 127°51'5 5.9
2015-May-26 00:33N 51°09' W 127°50'6 6.2
2015-May-25 23:34N 51°05' W 127°43'7 6.5
2015-May-25 22:33N 50°60' W 127°36'7 6.6
2015-May-25 21:33N 50°56' W 127°27'7 7.0
2015-May-25 20:33N 50°52' W 127°18'7 6.8
2015-May-25 19:33N 50°49' W 127°09'7 6.9
2015-May-25 18:29N 50°44' W 126°60'7 6.9
2015-May-25 17:31N 50°40' W 126°51'7 7.0
2015-May-25 16:32N 50°36' W 126°43'6 6.4
2015-May-25 15:31N 50°31' W 126°36'7 7.0
2015-May-25 14:30N 50°30' W 126°25'8 6.5
2015-May-25 13:16N 50°29' W 126°13'76 7.1
2015-May-25 02:29N 49°42' W 124°39'9 8.2
2015-May-25 01:25N 49°37' W 124°28'7 7.9
2015-May-25 00:31N 49°33' W 124°19'8 8.1
2015-May-24 23:32N 49°29' W 124°08'9 8.3
2015-May-24 22:29N 49°24' W 123°57'9 7.4
2015-May-24 21:18N 49°19' W 123°46'6 7.8
2015-May-24 20:33N 49°15' W 123°39'8 8.0
2015-May-24 19:34N 49°10' W 123°30'8 8.4
2015-May-24 18:33N 49°04' W 123°21'7 7.5
2015-May-24 17:33N 48°59' W 123°12'7 7.4
2015-May-24 16:33N 48°55' W 123°04'7 7.2
2015-May-24 15:34N 48°50' W 122°55'8 7.6
2015-May-24 14:33N 48°45' W 122°46'7 6.6
2015-May-24 13:34N 48°39' W 122°43'6 6.1
2015-May-24 12:34N 48°33' W 122°45'6 6.0
2015-May-24 11:33N 48°27' W 122°44'14 6.6
2015-May-24 09:29N 48°13' W 122°48'17 8.8
2015-May-24 07:34N 47°59' W 122°35'2 8.9
2015-May-24 07:22N 47°58' W 122°33'6 7.2
2015-May-24 06:34N 47°53' W 122°28'1 7.7
2015-May-24 06:27N 47°52' W 122°28'3 7.7
2015-May-24 06:07N 47°50' W 122°27'4 7.9
2015-May-24 05:33N 47°45' W 122°26'7 7.4
2015-May-24 04:34N 47°38' W 122°26'0 5.7
2015-May-24 04:32N 47°38' W 122°26'4 3.5
2015-May-24 03:29N 47°35' W 122°22'0 3.3
2015-May-24 03:27N 47°35' W 122°22'3 3.4
2015-May-24 02:30N 47°32' W 122°20'0 0.0
2015-May-24 01:30N 47°32' W 122°20'0 0.0
2015-May-24 00:30N 47°32' W 122°20'0 0.1
2015-May-24 00:21N 47°32' W 122°20'0 0.0
2015-May-23 23:30N 47°32' W 122°20'0 0.0
2015-May-22 14:34N 47°32' W 122°20'0 0.0
2015-May-22 14:28N 47°32' W 122°20'0 0.0
2015-May-22 14:19N 47°32' W 122°20'0 0.0
2015-May-22 13:22N 47°32' W 122°20'0 0.0
2015-May-22 12:58N 47°32' W 122°20'0 0.0
2015-May-22 12:13N 47°32' W 122°20'0 0.0
2015-May-22 12:07N 47°32' W 122°20'0 0.0
2015-May-22 11:31N 47°32' W 122°20'0 0.0
2015-May-22 11:22N 47°32' W 122°20'0 0.0
2015-May-22 10:31N 47°32' W 122°20'0 0.0
2015-May-22 09:25N 47°32' W 122°20'0 0.0
2015-May-22 09:22N 47°32' W 122°20'0 0.0
2015-May-22 07:31N 47°32' W 122°20'0 0.0
2015-May-22 07:25N 47°32' W 122°20'0 0.0
2015-May-22 06:31N 47°32' W 122°20'0 0.0
2015-May-22 06:25N 47°32' W 122°20'0 0.0
2015-May-22 05:19N 47°32' W 122°20'0 0.0
2015-May-22 05:19N 47°32' W 122°20'0 0.0
2015-May-22 04:31N 47°32' W 122°20'0 0.0
2015-May-22 03:43N 47°32' W 122°20'0 0.0
2015-May-22 03:13N 47°32' W 122°20'0 0.0
2015-May-22 03:13N 47°32' W 122°20'0 0.0
2015-May-22 02:25N 47°32' W 122°20'0 0.0
2015-May-22 01:25N 47°32' W 122°20'0 0.0
2015-May-22 01:13N 47°32' W 122°20'0 0.0
2015-May-22 00:31N 47°32' W 122°20'0 0.0
2015-May-22 00:07N 47°32' W 122°20'0 0.0
2015-May-21 23:31N 47°32' W 122°20'0 0.0
2015-May-21 23:31N 47°32' W 122°20'0 0.0
2015-May-21 22:28N 47°32' W 122°20'0 0.0
2015-May-21 21:40N 47°32' W 122°20'0 0.0
2015-May-21 21:25N 47°32' W 122°20'0 0.0
2015-May-21 21:25N 47°32' W 122°20'0 0.0
2015-May-21 20:28N 47°32' W 122°20'0 0.0
2015-May-21 18:31N 47°32' W 122°20'0 0.0
2015-May-21 17:31N 47°32' W 122°20'0 0.0
2015-May-21 16:22N 47°32' W 122°20'0 0.0
2015-May-21 14:10N 47°32' W 122°20'0 0.0
2015-May-21 13:22N 47°32' W 122°20'0 0.0
2015-May-21 12:16N 47°32' W 122°20'0 0.0
2015-May-21 12:16N 47°32' W 122°20'0 0.0
2015-May-21 11:22N 47°32' W 122°20'0 0.0
2015-May-21 10:25N 47°32' W 122°20'0 0.0
2015-May-21 09:40N 47°32' W 122°20'0 0.0
2015-May-21 09:31N 47°32' W 122°20'0 0.0
2015-May-21 09:31N 47°32' W 122°20'0 0.0
2015-May-21 08:28N 47°32' W 122°20'0 0.0
2015-May-21 07:55N 47°32' W 122°20'0 0.0
2015-May-21 07:25N 47°32' W 122°20'0 0.0
2015-May-21 07:25N 47°32' W 122°20'0 0.0
2015-May-21 06:31N 47°32' W 122°20'0 0.0
2015-May-21 06:25N 47°32' W 122°20'0 0.0
2015-May-21 05:34N 47°32' W 122°20'0 0.0
2015-May-21 05:31N 47°32' W 122°20'0 0.0
2015-May-21 04:34N 47°32' W 122°20'0 0.0
2015-May-21 04:19N 47°32' W 122°20'0 0.0
2015-May-21 03:34N 47°32' W 122°20'0 0.0
2015-May-21 03:18N 47°32' W 122°20'0 0.0
2015-May-21 02:30N 47°32' W 122°20'0 0.0
2015-May-21 02:12N 47°32' W 122°20'0 0.0
2015-May-21 01:33N 47°32' W 122°20'0 0.0
2015-May-21 01:27N 47°32' W 122°20'0 0.0
2015-May-21 00:33N 47°32' W 122°20'0 0.0
2015-May-21 00:06N 47°32' W 122°20'0 0.0
2015-May-20 23:33N 47°32' W 122°20'0 0.0
2015-May-20 23:15N 47°32' W 122°20'0 0.0
2015-May-20 22:33N 47°32' W 122°20'0 0.0
2015-May-20 22:30N 47°32' W 122°20'0 0.0
2015-May-20 21:33N 47°32' W 122°20'0 0.0
2015-May-20 20:33N 47°32' W 122°20'0 0.0
2015-May-20 19:33N 47°32' W 122°20'0 0.0
2015-May-20 19:24N 47°32' W 122°20'0 0.0
2015-May-20 18:33N 47°32' W 122°20'0 0.0
2015-May-20 17:54N 47°32' W 122°20'0 0.0
2015-May-20 17:30N 47°32' W 122°20'0 0.0
2015-May-20 16:30N 47°32' W 122°20'0 0.0
2015-May-20 16:18N 47°32' W 122°20'0 0.0
2015-May-19 23:42N 47°32' W 122°20'0 0.0
2015-May-19 23:33N 47°32' W 122°20'0 0.1
2015-May-19 23:27N 47°32' W 122°20'0 0.0
2015-May-19 22:24N 47°32' W 122°20'  
2015-May-16 13:44N 47°36' W 122°22'0 1.1
2015-May-16 13:26N 47°36' W 122°23'0 1.5
2015-May-16 13:25N 47°36' W 122°23'5 6.2
2015-May-16 12:33N 47°39' W 122°29'0 5.4
2015-May-16 12:29N 47°40' W 122°29'6 6.0
2015-May-16 11:33N 47°45' W 122°27'0 5.7
2015-May-16 11:29N 47°45' W 122°27'5 5.3
2015-May-16 10:33N 47°50' W 122°29'1 4.4
2015-May-16 10:19N 47°51' W 122°29'4 4.9
2015-May-16 09:33N 47°55' W 122°30'  
Track history (hours):
 
Tides and Currents Weather Stations Pressure Air Temp Water Temp Dewpoint Dewpoint Depression Visibility Wind Speed Wind Dir Waves Ship Positions

Diane H

Owner: BOYER TOWING INC, KETCHIKAN, AK. More information available from US FCC via Universal Licensing System and Coast Guard Vessel Documentation Center.

Last reported at 2015-May-26 09:32 UTC. Time now 2015-May-26 09:46 UTC.
Position N 52°05' W 128°01'.

Type: Towing. MMSI: 366673090.

Date/timePositionNaut miles runAvg speedWind from/ knotsBaromVisibWave heightAir tempDewpointWater temp
2015-May-26 09:32N 52°05' W 128°01'5 5.5
2015-May-26 08:33N 52°00' W 127°56'28 6.6
2015-May-26 04:23N 51°33' W 127°52'6 7.0
2015-May-26 03:30N 51°27' W 127°51'12 6.1
2015-May-26 01:29N 51°14' W 127°51'5 5.9
2015-May-26 00:33N 51°09' W 127°50'6 6.2
2015-May-25 23:34N 51°05' W 127°43'7 6.5
2015-May-25 22:33N 50°60' W 127°36'7 6.6
2015-May-25 21:33N 50°56' W 127°27'7 7.0
2015-May-25 20:33N 50°52' W 127°18'7 6.8
2015-May-25 19:33N 50°49' W 127°09'7 6.9
2015-May-25 18:29N 50°44' W 126°60'7 6.9
2015-May-25 17:31N 50°40' W 126°51'7 7.0
2015-May-25 16:32N 50°36' W 126°43'6 6.4
2015-May-25 15:31N 50°31' W 126°36'7 7.0
2015-May-25 14:30N 50°30' W 126°25'8 6.5
2015-May-25 13:16N 50°29' W 126°13'76 7.1
2015-May-25 02:29N 49°42' W 124°39'9 8.2
2015-May-25 01:25N 49°37' W 124°28'7 7.9
2015-May-25 00:31N 49°33' W 124°19'8 8.1
2015-May-24 23:32N 49°29' W 124°08'9 8.3
2015-May-24 22:29N 49°24' W 123°57'9 7.4
2015-May-24 21:18N 49°19' W 123°46'6 7.8
2015-May-24 20:33N 49°15' W 123°39'8 8.0
2015-May-24 19:34N 49°10' W 123°30'8 8.4
2015-May-24 18:33N 49°04' W 123°21'7 7.5
2015-May-24 17:33N 48°59' W 123°12'7 7.4
2015-May-24 16:33N 48°55' W 123°04'7 7.2
2015-May-24 15:34N 48°50' W 122°55'8 7.6
2015-May-24 14:33N 48°45' W 122°46'7 6.6
2015-May-24 13:34N 48°39' W 122°43'6 6.1
2015-May-24 12:34N 48°33' W 122°45'6 6.0
2015-May-24 11:33N 48°27' W 122°44'14 6.6
2015-May-24 09:29N 48°13' W 122°48'17 8.8
2015-May-24 07:34N 47°59' W 122°35'2 8.9
2015-May-24 07:22N 47°58' W 122°33'6 7.2
2015-May-24 06:34N 47°53' W 122°28'1 7.7
2015-May-24 06:27N 47°52' W 122°28'3 7.7
2015-May-24 06:07N 47°50' W 122°27'4 7.9
2015-May-24 05:33N 47°45' W 122°26'7 7.4
2015-May-24 04:34N 47°38' W 122°26'0 5.7
2015-May-24 04:32N 47°38' W 122°26'4 3.5
2015-May-24 03:29N 47°35' W 122°22'0 3.3
2015-May-24 03:27N 47°35' W 122°22'3 3.4
2015-May-24 02:30N 47°32' W 122°20'0 0.0
2015-May-24 01:30N 47°32' W 122°20'0 0.0
2015-May-24 00:30N 47°32' W 122°20'0 0.1
2015-May-24 00:21N 47°32' W 122°20'0 0.0
2015-May-23 23:30N 47°32' W 122°20'0 0.0
2015-May-22 14:34N 47°32' W 122°20'0 0.0
2015-May-22 14:28N 47°32' W 122°20'0 0.0
2015-May-22 14:19N 47°32' W 122°20'0 0.0
2015-May-22 13:22N 47°32' W 122°20'0 0.0
2015-May-22 12:58N 47°32' W 122°20'0 0.0
2015-May-22 12:13N 47°32' W 122°20'0 0.0
2015-May-22 12:07N 47°32' W 122°20'0 0.0
2015-May-22 11:31N 47°32' W 122°20'0 0.0
2015-May-22 11:22N 47°32' W 122°20'0 0.0
2015-May-22 10:31N 47°32' W 122°20'0 0.0
2015-May-22 09:25N 47°32' W 122°20'0 0.0
2015-May-22 09:22N 47°32' W 122°20'0 0.0
2015-May-22 07:31N 47°32' W 122°20'0 0.0
2015-May-22 07:25N 47°32' W 122°20'0 0.0
2015-May-22 06:31N 47°32' W 122°20'0 0.0
2015-May-22 06:25N 47°32' W 122°20'0 0.0
2015-May-22 05:19N 47°32' W 122°20'0 0.0
2015-May-22 05:19N 47°32' W 122°20'0 0.0
2015-May-22 04:31N 47°32' W 122°20'0 0.0
2015-May-22 03:43N 47°32' W 122°20'0 0.0
2015-May-22 03:13N 47°32' W 122°20'0 0.0
2015-May-22 03:13N 47°32' W 122°20'0 0.0
2015-May-22 02:25N 47°32' W 122°20'0 0.0
2015-May-22 01:25N 47°32' W 122°20'0 0.0
2015-May-22 01:13N 47°32' W 122°20'0 0.0
2015-May-22 00:31N 47°32' W 122°20'0 0.0
2015-May-22 00:07N 47°32' W 122°20'0 0.0
2015-May-21 23:31N 47°32' W 122°20'0 0.0
2015-May-21 23:31N 47°32' W 122°20'0 0.0
2015-May-21 22:28N 47°32' W 122°20'0 0.0
2015-May-21 21:40N 47°32' W 122°20'0 0.0
2015-May-21 21:25N 47°32' W 122°20'0 0.0
2015-May-21 21:25N 47°32' W 122°20'0 0.0
2015-May-21 20:28N 47°32' W 122°20'0 0.0
2015-May-21 18:31N 47°32' W 122°20'0 0.0
2015-May-21 17:31N 47°32' W 122°20'0 0.0
2015-May-21 16:22N 47°32' W 122°20'0 0.0
2015-May-21 14:10N 47°32' W 122°20'0 0.0
2015-May-21 13:22N 47°32' W 122°20'0 0.0
2015-May-21 12:16N 47°32' W 122°20'0 0.0
2015-May-21 12:16N 47°32' W 122°20'0 0.0
2015-May-21 11:22N 47°32' W 122°20'0 0.0
2015-May-21 10:25N 47°32' W 122°20'0 0.0
2015-May-21 09:40N 47°32' W 122°20'0 0.0
2015-May-21 09:31N 47°32' W 122°20'0 0.0
2015-May-21 09:31N 47°32' W 122°20'0 0.0
2015-May-21 08:28N 47°32' W 122°20'0 0.0
2015-May-21 07:55N 47°32' W 122°20'0 0.0
2015-May-21 07:25N 47°32' W 122°20'0 0.0
2015-May-21 07:25N 47°32' W 122°20'0 0.0
2015-May-21 06:31N 47°32' W 122°20'0 0.0
2015-May-21 06:25N 47°32' W 122°20'0 0.0
2015-May-21 05:34N 47°32' W 122°20'0 0.0
2015-May-21 05:31N 47°32' W 122°20'0 0.0
2015-May-21 04:34N 47°32' W 122°20'0 0.0
2015-May-21 04:19N 47°32' W 122°20'0 0.0
2015-May-21 03:34N 47°32' W 122°20'0 0.0
2015-May-21 03:18N 47°32' W 122°20'0 0.0
2015-May-21 02:30N 47°32' W 122°20'0 0.0
2015-May-21 02:12N 47°32' W 122°20'0 0.0
2015-May-21 01:33N 47°32' W 122°20'0 0.0
2015-May-21 01:27N 47°32' W 122°20'0 0.0
2015-May-21 00:33N 47°32' W 122°20'0 0.0
2015-May-21 00:06N 47°32' W 122°20'0 0.0
2015-May-20 23:33N 47°32' W 122°20'0 0.0
2015-May-20 23:15N 47°32' W 122°20'0 0.0
2015-May-20 22:33N 47°32' W 122°20'0 0.0
2015-May-20 22:30N 47°32' W 122°20'0 0.0
2015-May-20 21:33N 47°32' W 122°20'0 0.0
2015-May-20 20:33N 47°32' W 122°20'0 0.0
2015-May-20 19:33N 47°32' W 122°20'0 0.0
2015-May-20 19:24N 47°32' W 122°20'0 0.0
2015-May-20 18:33N 47°32' W 122°20'0 0.0
2015-May-20 17:54N 47°32' W 122°20'0 0.0
2015-May-20 17:30N 47°32' W 122°20'0 0.0
2015-May-20 16:30N 47°32' W 122°20'0 0.0
2015-May-20 16:18N 47°32' W 122°20'0 0.0
2015-May-19 23:42N 47°32' W 122°20'0 0.0
2015-May-19 23:33N 47°32' W 122°20'0 0.1
2015-May-19 23:27N 47°32' W 122°20'0 0.0
2015-May-19 22:24N 47°32' W 122°20'  
2015-May-16 13:44N 47°36' W 122°22'0 1.1
2015-May-16 13:26N 47°36' W 122°23'0 1.5
2015-May-16 13:25N 47°36' W 122°23'5 6.2
2015-May-16 12:33N 47°39' W 122°29'0 5.4
2015-May-16 12:29N 47°40' W 122°29'6 6.0
2015-May-16 11:33N 47°45' W 122°27'0 5.7
2015-May-16 11:29N 47°45' W 122°27'5 5.3
2015-May-16 10:33N 47°50' W 122°29'1 4.4
2015-May-16 10:19N 47°51' W 122°29'4 4.9
2015-May-16 09:33N 47°55' W 122°30'  

Dump ship's entire track history